createdAt,value
2023-04-03T00:01:03.624Z,100.00
2023-04-03T00:03:31.761Z,100.00
2023-04-03T00:05:59.767Z,100.00
2023-04-03T00:08:31.567Z,100.00
2023-04-03T00:10:59.579Z,100.00
2023-04-03T00:13:27.557Z,100.00
2023-04-03T00:15:55.704Z,100.00
2023-04-03T00:18:24.186Z,100.00
2023-04-03T00:20:52.238Z,100.00
2023-04-03T00:23:20.203Z,100.00
2023-04-03T00:25:49.528Z,100.00
2023-04-03T00:28:17.440Z,100.00
2023-04-03T00:30:45.484Z,100.00
2023-04-03T00:33:14.641Z,100.00
2023-04-03T00:35:43.443Z,100.00
2023-04-03T00:38:12.023Z,100.00
2023-04-03T00:40:43.556Z,100.00
2023-04-03T00:43:16.311Z,100.00
2023-04-03T00:45:46.577Z,100.00
2023-04-03T00:48:19.346Z,100.00
2023-04-03T00:50:48.015Z,99.24
2023-04-03T00:53:20.122Z,99.95
2023-04-03T00:55:50.365Z,100.00
2023-04-03T00:58:21.953Z,98.55
2023-04-03T01:00:58.530Z,98.32
2023-04-03T01:03:26.815Z,98.84
2023-04-03T01:05:54.937Z,97.96
2023-04-03T01:08:22.831Z,98.88
2023-04-03T01:10:50.737Z,100.00
2023-04-03T01:13:26.079Z,100.00
2023-04-03T01:15:54.371Z,100.00
2023-04-03T01:18:23.970Z,100.00
2023-04-03T01:21:43.644Z,100.00
2023-04-03T01:24:27.514Z,100.00
2023-04-03T01:26:55.524Z,100.00
2023-04-03T01:29:24.828Z,100.00
2023-04-03T01:31:56.626Z,100.00
2023-04-03T01:34:25.439Z,100.00
2023-04-03T01:36:54.309Z,100.00
2023-04-03T01:39:22.410Z,100.00
2023-04-03T01:41:50.869Z,100.00
2023-04-03T01:44:18.849Z,100.00
2023-04-03T01:46:47.451Z,100.00
2023-04-03T01:49:16.767Z,100.00
2023-04-03T01:51:44.694Z,100.00
2023-04-03T01:54:12.839Z,100.00
2023-04-03T01:56:41.106Z,100.00
2023-04-03T01:59:09.012Z,100.00
2023-04-03T02:01:37.352Z,100.00
2023-04-03T02:04:05.474Z,100.00
2023-04-03T02:06:35.003Z,100.00
2023-04-03T02:09:03.076Z,100.00
2023-04-03T02:11:31.113Z,100.00
2023-04-03T02:13:59.062Z,100.00
2023-04-03T02:16:27.038Z,98.95
2023-04-03T02:18:54.964Z,99.56
2023-04-03T02:21:22.878Z,98.91
2023-04-03T02:23:52.206Z,98.57
2023-04-03T02:26:20.134Z,97.98
2023-04-03T02:28:48.150Z,97.54
2023-04-03T02:31:16.233Z,98.32
2023-04-03T02:33:44.197Z,98.88
2023-04-03T02:36:12.315Z,100.00
2023-04-03T02:38:40.380Z,99.96
2023-04-03T02:41:11.648Z,98.61
2023-04-03T02:43:40.025Z,100.00
2023-04-03T02:46:08.499Z,100.00
2023-04-03T02:48:36.590Z,100.00
2023-04-03T02:51:04.689Z,100.00
2023-04-03T02:53:32.641Z,100.00
2023-04-03T02:56:00.551Z,100.00
2023-04-03T02:58:29.874Z,100.00
2023-04-03T03:00:57.794Z,100.00
2023-04-03T03:03:25.730Z,100.00
2023-04-03T03:06:03.621Z,99.87
2023-04-03T03:08:31.572Z,100.00
2023-04-03T03:10:59.598Z,99.98
2023-04-03T03:13:27.526Z,98.42
2023-04-03T03:15:56.890Z,97.63
2023-04-03T03:18:25.435Z,97.46
2023-04-03T03:20:54.025Z,96.73
2023-04-03T03:23:22.232Z,97.32
2023-04-03T03:25:50.358Z,97.04
2023-04-03T03:28:18.289Z,96.76
2023-04-03T03:30:46.448Z,97.04
2023-04-03T03:33:16.188Z,95.67
2023-04-03T03:35:44.222Z,96.40
2023-04-03T03:38:12.546Z,96.19
2023-04-03T03:40:40.444Z,97.14
2023-04-03T03:43:08.373Z,96.78
2023-04-03T03:45:36.487Z,97.02
2023-04-03T03:48:05.995Z,97.91
2023-04-03T03:50:35.814Z,98.74
2023-04-03T03:53:03.768Z,100.00
2023-04-03T03:55:31.679Z,100.00
2023-04-03T03:57:59.748Z,100.00
2023-04-03T04:00:28.182Z,100.00
2023-04-03T04:02:58.742Z,99.41
2023-04-03T04:05:27.355Z,98.68
2023-04-03T04:07:56.992Z,98.13
2023-04-03T04:10:24.898Z,97.58
2023-04-03T04:12:52.852Z,96.91
2023-04-03T04:15:22.595Z,96.90
2023-04-03T04:17:50.709Z,96.44
2023-04-03T04:20:19.290Z,96.55
2023-04-03T04:22:47.294Z,96.37
2023-04-03T04:25:16.789Z,96.05
2023-04-03T04:27:44.783Z,96.35
2023-04-03T04:30:13.677Z,97.13
2023-04-03T04:32:41.797Z,95.85
2023-04-03T04:35:10.872Z,95.99
2023-04-03T04:37:38.951Z,95.93
2023-04-03T04:40:08.163Z,96.78
2023-04-03T04:42:37.465Z,97.34
2023-04-03T04:45:06.153Z,97.48
2023-04-03T04:47:34.189Z,99.75
2023-04-03T04:50:02.104Z,99.97
2023-04-03T04:52:30.072Z,99.01
2023-04-03T04:54:58.045Z,99.92
2023-04-03T04:57:26.295Z,100.00
2023-04-03T04:59:55.653Z,100.00
2023-04-03T05:02:23.629Z,100.00
2023-04-03T05:04:53.312Z,99.33
2023-04-03T05:07:21.305Z,100.00
2023-04-03T05:09:49.276Z,99.91
2023-04-03T05:12:18.648Z,99.83
2023-04-03T05:14:46.543Z,98.03
2023-04-03T05:17:16.154Z,98.29
2023-04-03T05:19:44.058Z,96.94
2023-04-03T05:22:12.045Z,98.19
2023-04-03T05:24:40.409Z,98.03
2023-04-03T05:27:08.322Z,98.38
2023-04-03T05:29:36.208Z,99.06
2023-04-03T05:32:04.510Z,99.38
2023-04-03T05:34:33.994Z,95.76
2023-04-03T05:37:04.232Z,94.67
2023-04-03T05:39:32.805Z,95.17
2023-04-03T05:42:00.781Z,93.65
2023-04-03T05:44:28.703Z,93.48
2023-04-03T05:46:56.812Z,93.13
2023-04-03T05:49:24.897Z,91.53
2023-04-03T05:51:54.350Z,88.81
2023-04-03T05:54:26.124Z,89.18
2023-04-03T05:56:55.096Z,87.18
2023-04-03T05:59:23.423Z,87.25
2023-04-03T06:01:51.964Z,84.80
2023-04-03T06:04:20.289Z,83.72
2023-04-03T06:06:50.548Z,83.87
2023-04-03T06:09:21.961Z,85.31
2023-04-03T06:11:50.072Z,86.26
2023-04-03T06:14:18.028Z,85.15
2023-04-03T06:16:46.510Z,84.58
2023-04-03T06:19:14.978Z,85.31
2023-04-03T06:21:43.647Z,85.72
2023-04-03T06:24:14.823Z,86.49
2023-04-03T06:26:44.662Z,84.88
2023-04-03T06:29:12.714Z,82.10
2023-04-03T06:31:41.004Z,82.20
2023-04-03T06:34:09.870Z,78.37
2023-04-03T06:36:37.975Z,76.36
2023-04-03T06:39:06.269Z,76.74
2023-04-03T06:41:37.119Z,78.82
2023-04-03T06:44:07.408Z,76.18
2023-04-03T06:46:35.416Z,75.33
2023-04-03T06:49:03.846Z,73.64
2023-04-03T06:51:32.466Z,73.61
2023-04-03T06:54:02.299Z,73.33
2023-04-03T06:56:30.956Z,71.18
2023-04-03T06:58:59.795Z,65.71
2023-04-03T07:01:32.535Z,67.30
2023-04-03T07:04:01.333Z,69.00
2023-04-03T07:06:29.383Z,69.84
2023-04-03T07:08:57.971Z,67.97
2023-04-03T07:11:27.403Z,68.81
2023-04-03T07:13:55.588Z,69.18
2023-04-03T07:16:23.635Z,68.79
2023-04-03T07:18:53.239Z,70.39
2023-04-03T07:21:21.363Z,68.24
2023-04-03T07:26:23.468Z,70.62
2023-04-03T07:28:51.969Z,69.26
2023-04-03T07:31:20.198Z,70.17
2023-04-03T07:33:48.406Z,71.31
2023-04-03T07:36:21.079Z,70.32
2023-04-03T07:38:49.073Z,72.17
2023-04-03T07:41:18.880Z,72.23
2023-04-03T07:43:47.612Z,68.43
2023-04-03T07:46:15.617Z,69.17
2023-04-03T07:48:43.648Z,68.81
2023-04-03T07:51:12.207Z,68.53
2023-04-03T07:53:41.574Z,67.78
2023-04-03T07:56:10.622Z,64.21
2023-04-03T07:58:39.255Z,66.47
2023-04-03T08:01:07.312Z,63.97
2023-04-03T08:03:35.406Z,65.37
2023-04-03T08:06:06.178Z,62.70
2023-04-03T08:08:36.503Z,64.41
2023-04-03T08:11:07.184Z,64.49
2023-04-03T08:13:36.730Z,62.25
2023-04-03T08:16:14.062Z,61.72
2023-04-03T08:18:42.131Z,66.66
2023-04-03T08:21:11.865Z,59.82
2023-04-03T08:23:40.494Z,61.99
2023-04-03T08:26:11.891Z,61.93
2023-04-03T08:28:40.150Z,60.87
2023-04-03T08:31:12.038Z,58.33
2023-04-03T08:33:41.346Z,60.08
2023-04-03T08:36:18.252Z,60.39
2023-04-03T08:38:46.393Z,61.08
2023-04-03T08:41:21.412Z,58.77
2023-04-03T08:44:00.559Z,58.15
2023-04-03T08:46:41.118Z,59.86
2023-04-03T08:49:25.712Z,55.32
2023-04-03T08:51:55.088Z,55.36
2023-04-03T08:54:33.955Z,55.98
2023-04-03T08:57:07.848Z,57.85
2023-04-03T08:59:38.002Z,59.47
2023-04-03T09:02:16.306Z,58.20
2023-04-03T09:04:44.294Z,58.73
2023-04-03T09:07:20.757Z,58.48
2023-04-03T09:09:51.112Z,60.96
2023-04-03T09:12:27.219Z,57.07
2023-04-03T09:15:03.242Z,56.64
2023-04-03T09:17:43.248Z,57.32
2023-04-03T09:20:22.425Z,56.84
2023-04-03T09:22:52.945Z,59.29
2023-04-03T09:25:24.374Z,58.92
2023-04-03T09:27:54.613Z,59.51
2023-04-03T09:30:24.598Z,61.55
2023-04-03T09:32:55.211Z,61.76
2023-04-03T09:35:32.700Z,62.10
2023-04-03T09:38:17.851Z,64.43
2023-04-03T09:40:47.335Z,64.20
2023-04-03T09:43:28.854Z,61.63
2023-04-03T09:45:58.645Z,60.95
2023-04-03T09:48:29.322Z,62.40
2023-04-03T09:51:04.166Z,60.61
2023-04-03T09:53:36.531Z,59.86
2023-04-03T09:56:08.027Z,60.16
2023-04-03T09:58:49.872Z,58.46
2023-04-03T10:01:32.501Z,58.26
2023-04-03T10:04:12.270Z,59.30
2023-04-03T10:06:44.542Z,59.59
2023-04-03T10:09:24.575Z,59.76
2023-04-03T10:12:05.938Z,59.07
2023-04-03T10:14:37.157Z,61.25
2023-04-03T10:17:17.219Z,60.37
2023-04-03T10:19:49.651Z,59.93
2023-04-03T10:22:25.280Z,55.33
2023-04-03T10:25:07.488Z,55.38
2023-04-03T10:27:51.132Z,58.64
2023-04-03T10:30:35.094Z,56.94
2023-04-03T10:33:20.166Z,56.00
2023-04-03T10:35:59.760Z,57.53
2023-04-03T10:38:40.388Z,56.48
2023-04-03T10:41:18.433Z,56.67
2023-04-03T10:43:56.500Z,56.16
2023-04-03T10:46:31.871Z,56.25
2023-04-03T10:49:16.096Z,55.93
2023-04-03T10:51:46.705Z,55.93
2023-04-03T10:54:21.748Z,53.52
2023-04-03T10:57:04.437Z,54.09
2023-04-03T10:59:41.272Z,55.92
2023-04-03T11:02:20.158Z,57.16
2023-04-03T11:04:53.591Z,55.74
2023-04-03T11:07:24.373Z,59.04
2023-04-03T11:09:56.444Z,55.57
2023-04-03T11:12:31.661Z,56.64
2023-04-03T11:14:59.955Z,56.46
2023-04-03T11:17:36.228Z,52.11
2023-04-03T11:20:12.534Z,52.44
2023-04-03T11:22:44.303Z,54.21
2023-04-03T11:25:21.089Z,51.63
2023-04-03T11:27:53.574Z,50.04
2023-04-03T11:30:26.285Z,52.49
2023-04-03T11:33:19.075Z,52.45
2023-04-03T11:35:49.572Z,52.54
2023-04-03T11:38:24.110Z,54.75
2023-04-03T11:40:53.243Z,52.01
2023-04-03T11:43:27.066Z,53.40
2023-04-03T11:45:56.997Z,55.15
2023-04-03T11:49:08.853Z,54.57
2023-04-03T11:51:52.803Z,55.48
2023-04-03T11:54:56.234Z,53.28
2023-04-03T11:57:47.727Z,54.37
2023-04-03T12:00:55.892Z,54.15
2023-04-03T12:04:16.021Z,55.38
2023-04-03T12:07:19.022Z,56.04
2023-04-03T12:10:06.383Z,54.13
2023-04-03T12:12:47.573Z,55.78
2023-04-03T12:15:59.596Z,54.49
2023-04-03T12:18:48.386Z,53.43
2023-04-03T12:21:23.532Z,54.82
2023-04-03T12:24:13.076Z,55.69
2023-04-03T12:26:54.836Z,55.81
2023-04-03T12:29:33.807Z,57.25
2023-04-03T12:32:26.007Z,59.26
2023-04-03T12:35:15.846Z,58.56
2023-04-03T12:38:03.179Z,59.00
2023-04-03T12:40:46.356Z,59.03
2023-04-03T12:43:35.827Z,58.09
2023-04-03T12:46:08.833Z,62.78
2023-04-03T12:48:55.650Z,60.68
2023-04-03T12:51:36.290Z,59.79
2023-04-03T12:54:20.939Z,61.13
2023-04-03T12:56:59.410Z,60.36
2023-04-03T12:59:34.179Z,62.19
2023-04-03T13:02:16.879Z,62.51
2023-04-03T13:04:57.941Z,61.79
2023-04-03T13:07:40.469Z,63.11
2023-04-03T13:10:31.176Z,61.26
2023-04-03T13:13:18.885Z,62.10
2023-04-03T13:15:51.543Z,63.97
2023-04-03T13:18:40.335Z,64.38
2023-04-03T13:21:23.533Z,64.28
2023-04-03T13:24:13.968Z,64.68
2023-04-03T13:26:45.465Z,64.56
2023-04-03T13:29:31.086Z,65.57
2023-04-03T13:32:01.436Z,67.36
2023-04-03T13:34:32.673Z,67.76
2023-04-03T13:37:04.298Z,68.31
2023-04-03T13:39:34.125Z,68.98
2023-04-03T13:42:05.888Z,70.84
2023-04-03T13:44:40.599Z,70.85
2023-04-03T13:47:21.186Z,70.87
2023-04-03T13:50:02.339Z,70.88
2023-04-03T13:52:33.618Z,71.33
2023-04-03T13:55:07.921Z,72.18
2023-04-03T13:57:38.378Z,73.39
2023-04-03T14:00:24.072Z,73.28
2023-04-03T14:02:52.103Z,75.72
2023-04-03T14:05:22.275Z,74.95
2023-04-03T14:07:50.400Z,73.80
2023-04-03T14:10:18.684Z,74.38
2023-04-03T14:12:47.248Z,74.58
2023-04-03T14:15:22.283Z,74.52
2023-04-03T14:17:53.457Z,74.36
2023-04-03T14:20:25.029Z,75.77
2023-04-03T14:22:54.720Z,75.89
2023-04-03T14:25:24.592Z,78.06
2023-04-03T14:27:54.801Z,77.81
2023-04-03T14:30:25.912Z,79.10
2023-04-03T14:32:56.206Z,79.24
2023-04-03T14:35:24.851Z,79.08
2023-04-03T14:37:54.220Z,79.48
2023-04-03T14:40:25.540Z,79.29
2023-04-03T14:42:56.277Z,80.58
2023-04-03T14:45:25.664Z,80.61
2023-04-03T14:47:57.695Z,81.11
2023-04-03T14:50:28.570Z,81.48
2023-04-03T14:52:59.047Z,81.00
2023-04-03T14:55:27.739Z,80.14
2023-04-03T14:57:56.323Z,80.56
2023-04-03T15:00:24.802Z,79.98
2023-04-03T15:02:53.685Z,79.86
2023-04-03T15:05:23.421Z,80.97
2023-04-03T15:07:54.821Z,80.37
2023-04-03T15:10:26.106Z,81.21
2023-04-03T15:12:54.942Z,81.79
2023-04-03T15:15:24.319Z,83.27
2023-04-03T15:17:55.616Z,82.86
2023-04-03T15:20:27.325Z,83.14
2023-04-03T15:22:57.249Z,83.79
2023-04-03T15:25:26.555Z,84.38
2023-04-03T15:27:55.784Z,83.74
2023-04-03T15:30:23.936Z,84.13
2023-04-03T15:32:52.683Z,84.50
2023-04-03T15:35:21.034Z,85.28
2023-04-03T15:37:50.609Z,86.25
2023-04-03T15:40:18.820Z,85.84
2023-04-03T15:42:47.206Z,87.13
2023-04-03T15:45:15.139Z,87.76
2023-04-03T15:47:44.320Z,88.01
2023-04-03T15:50:12.803Z,88.46
2023-04-03T15:52:40.691Z,87.69
2023-04-03T15:55:10.650Z,88.96
2023-04-03T16:00:13.463Z,91.54
2023-04-03T16:02:42.865Z,91.31
2023-04-03T16:05:12.390Z,90.49
2023-04-03T16:07:41.035Z,92.30
2023-04-03T16:10:12.576Z,92.00
2023-04-03T16:12:40.562Z,94.54
2023-04-03T16:15:10.156Z,93.64
2023-04-03T16:17:40.564Z,93.76
2023-04-03T16:20:10.539Z,94.54
2023-04-03T16:22:39.506Z,93.74
2023-04-03T16:25:09.150Z,93.25
2023-04-03T16:27:39.143Z,94.66
2023-04-03T16:30:09.444Z,93.66
2023-04-03T16:32:39.102Z,93.38
2023-04-03T16:35:08.209Z,94.79
2023-04-03T16:37:36.237Z,95.94
2023-04-03T16:40:10.819Z,95.22
2023-04-03T16:42:40.196Z,95.22
2023-04-03T16:45:09.396Z,95.76
2023-04-03T16:47:37.354Z,96.48
2023-04-03T16:50:06.115Z,97.28
2023-04-03T16:52:34.631Z,99.18
2023-04-03T16:55:02.641Z,99.64
2023-04-03T16:57:30.645Z,100.00
2023-04-03T16:59:59.909Z,100.00
2023-04-03T17:02:27.974Z,100.00
2023-04-03T17:04:56.076Z,100.00
2023-04-03T17:07:25.877Z,100.00
2023-04-03T17:09:54.941Z,100.00
2023-04-03T17:12:23.585Z,100.00
2023-04-03T17:14:51.810Z,100.00
2023-04-03T17:17:24.204Z,100.00
2023-04-03T17:19:52.159Z,100.00
2023-04-03T17:22:20.080Z,100.00
2023-04-03T17:24:48.568Z,100.00
2023-04-03T17:27:16.569Z,100.00
2023-04-03T17:29:44.486Z,100.00
2023-04-03T17:32:12.409Z,100.00
2023-04-03T17:34:41.821Z,100.00
2023-04-03T17:37:10.022Z,100.00
2023-04-03T17:39:37.964Z,100.00
2023-04-03T17:42:05.979Z,100.00
2023-04-03T17:44:34.639Z,100.00
2023-04-03T17:47:03.060Z,100.00
2023-04-03T17:49:31.561Z,100.00
2023-04-03T17:52:01.028Z,100.00
2023-04-03T17:54:28.901Z,100.00
2023-04-03T17:56:56.790Z,100.00
2023-04-03T17:59:24.764Z,100.00
2023-04-03T18:01:52.767Z,100.00
2023-04-03T18:04:20.876Z,100.00
2023-04-03T18:06:51.931Z,100.00
2023-04-03T18:09:24.236Z,100.00
2023-04-03T18:11:53.326Z,100.00
2023-04-03T18:14:24.989Z,100.00
2023-04-03T18:16:53.099Z,100.00
2023-04-03T18:19:23.363Z,100.00
2023-04-03T18:21:52.479Z,100.00
2023-04-03T18:24:23.002Z,100.00
2023-04-03T18:26:54.839Z,100.00
2023-04-03T18:29:23.278Z,100.00
2023-04-03T18:31:55.106Z,100.00
2023-04-03T18:34:22.999Z,100.00
2023-04-03T18:36:52.428Z,100.00
2023-04-03T18:39:24.016Z,100.00
2023-04-03T18:41:53.225Z,100.00
2023-04-03T18:44:24.947Z,100.00
2023-04-03T18:46:53.731Z,100.00
2023-04-03T18:49:22.016Z,100.00
2023-04-03T18:51:50.709Z,100.00
2023-04-03T18:54:18.591Z,100.00
2023-04-03T18:56:48.364Z,100.00
2023-04-03T18:59:16.505Z,100.00
2023-04-03T19:01:44.501Z,100.00
2023-04-03T19:04:12.751Z,100.00
2023-04-03T19:06:42.703Z,100.00
2023-04-03T19:09:11.416Z,100.00
2023-04-03T19:11:39.406Z,100.00
2023-04-03T19:16:40.179Z,100.00
2023-04-03T19:19:08.173Z,100.00
2023-04-03T19:21:40.860Z,100.00
2023-04-03T19:24:09.626Z,100.00
2023-04-03T19:26:37.801Z,100.00
2023-04-03T19:29:06.153Z,100.00
2023-04-03T19:31:37.199Z,100.00
2023-04-03T19:34:05.679Z,100.00
2023-04-03T19:36:34.724Z,100.00
2023-04-03T19:39:02.938Z,100.00
2023-04-03T19:41:32.740Z,100.00
2023-04-03T19:44:01.264Z,100.00
2023-04-03T19:46:31.072Z,100.00
2023-04-03T19:49:00.621Z,100.00
2023-04-03T19:51:28.569Z,100.00
2023-04-03T19:53:56.501Z,100.00
2023-04-03T19:56:24.580Z,100.00
2023-04-03T19:58:54.282Z,100.00
2023-04-03T20:01:22.767Z,100.00
2023-04-03T20:03:50.809Z,100.00
2023-04-03T20:06:21.639Z,100.00
2023-04-03T20:08:49.713Z,100.00
2023-04-03T20:11:17.754Z,100.00
2023-04-03T20:13:45.708Z,100.00
2023-04-03T20:16:14.156Z,100.00
2023-04-03T20:18:42.510Z,100.00
2023-04-03T20:21:10.912Z,100.00
2023-04-03T20:23:40.475Z,100.00
2023-04-03T20:26:13.175Z,100.00
2023-04-03T20:28:43.967Z,100.00
2023-04-03T20:31:14.237Z,100.00
2023-04-03T20:33:42.920Z,100.00
2023-04-03T20:36:11.183Z,100.00
2023-04-03T20:38:40.925Z,100.00
2023-04-03T20:41:09.399Z,100.00
2023-04-03T20:43:38.574Z,100.00
2023-04-03T20:46:07.045Z,100.00
2023-04-03T20:48:35.730Z,100.00
2023-04-03T20:51:10.325Z,100.00
2023-04-03T20:53:38.794Z,100.00
2023-04-03T20:56:09.285Z,100.00
2023-04-03T20:58:39.601Z,100.00
2023-04-03T21:01:15.970Z,100.00
2023-04-03T21:03:46.529Z,100.00
2023-04-03T21:06:52.124Z,100.00
2023-04-03T21:09:58.041Z,100.00
2023-04-03T21:13:03.486Z,100.00
2023-04-03T21:15:54.979Z,100.00
2023-04-03T21:18:48.187Z,100.00
2023-04-03T21:21:22.450Z,100.00
2023-04-03T21:23:52.034Z,100.00
2023-04-03T21:26:21.735Z,100.00
2023-04-03T21:28:52.551Z,100.00
2023-04-03T21:31:22.256Z,100.00
2023-04-03T21:33:51.835Z,100.00
2023-04-03T21:36:19.793Z,100.00
2023-04-03T21:38:48.316Z,100.00
2023-04-03T21:41:16.395Z,100.00
2023-04-03T21:43:47.033Z,100.00
2023-04-03T21:46:15.925Z,100.00
2023-04-03T21:48:45.690Z,100.00
2023-04-03T21:51:16.293Z,100.00
2023-04-03T21:53:44.959Z,100.00
2023-04-03T21:56:13.685Z,100.00
2023-04-03T21:58:41.647Z,100.00
2023-04-03T22:01:11.225Z,100.00
2023-04-03T22:03:39.298Z,100.00
2023-04-03T22:06:07.462Z,100.00
2023-04-03T22:08:37.416Z,100.00
2023-04-03T22:11:07.550Z,100.00
2023-04-03T22:13:36.263Z,100.00
2023-04-03T22:16:04.905Z,100.00
2023-04-03T22:18:33.709Z,100.00
2023-04-03T22:21:01.812Z,100.00
2023-04-03T22:23:29.768Z,100.00
2023-04-03T22:26:03.783Z,100.00
2023-04-03T22:28:32.944Z,100.00
2023-04-03T22:31:03.948Z,100.00
2023-04-03T22:33:32.164Z,100.00
2023-04-03T22:36:00.231Z,100.00
2023-04-03T22:38:28.344Z,100.00
2023-04-03T22:41:00.145Z,100.00
2023-04-03T22:43:30.995Z,100.00
2023-04-03T22:45:59.370Z,100.00
2023-04-03T22:48:27.317Z,100.00
2023-04-03T22:50:55.768Z,100.00
2023-04-03T22:53:24.050Z,100.00
2023-04-03T22:55:56.233Z,100.00
2023-04-03T22:58:26.586Z,100.00
2023-04-03T23:00:57.646Z,100.00
2023-04-03T23:03:26.057Z,100.00
2023-04-03T23:05:56.262Z,100.00
2023-04-03T23:08:24.469Z,100.00
2023-04-03T23:10:55.550Z,100.00
2023-04-03T23:13:23.762Z,100.00
2023-04-03T23:15:54.499Z,100.00
2023-04-03T23:18:24.129Z,100.00
2023-04-03T23:20:54.960Z,100.00
2023-04-03T23:23:23.835Z,100.00
2023-04-03T23:25:54.708Z,100.00
2023-04-03T23:28:23.010Z,100.00
2023-04-03T23:30:51.858Z,100.00
2023-04-03T23:33:19.850Z,100.00
2023-04-03T23:35:49.360Z,100.00
2023-04-03T23:38:17.763Z,100.00
2023-04-03T23:40:47.452Z,100.00
2023-04-03T23:43:15.666Z,100.00
2023-04-03T23:45:45.788Z,100.00
2023-04-03T23:48:13.838Z,100.00
2023-04-03T23:50:42.685Z,100.00
2023-04-03T23:53:13.502Z,100.00
2023-04-03T23:55:41.877Z,100.00
2023-04-03T23:58:10.774Z,100.00
